Time;durP1;ratioP1;P1;durP2;ratioP2;P2;SDS_P1;SDS_P2;PMS_P1;PMS_P2;Temp;Humidity;BMP_temperature;BMP_pressure;BME280_temperature;BME280_humidity;BME280_pressure;Samples;Min_cycle;Max_cycle;Signal;HPM_P1;HPM_P2
2022/12/15 00:43:37;;;;;;;114.60;50.33;;;-2.10;99.90;;;;;;10323284;28;20042;-82
2022/12/15 00:48:38;;;;;;;111.00;49.77;;;-2.10;99.90;;;;;;10323673;28;20031;-82
2022/12/15 01:20:16;;;;;;;121.27;54.23;;;-2.20;99.90;;;;;;10317976;28;20129;-82
2022/12/15 01:25:19;;;;;;;113.43;51.90;;;-2.10;99.90;;;;;;10322942;28;20026;-82
2022/12/15 01:30:22;;;;;;;110.57;49.93;;;-2.10;99.90;;;;;;10322810;28;20029;-82
2022/12/15 01:35:23;;;;;;;113.97;48.60;;;-2.10;99.90;;;;;;10298773;28;20058;-83
2022/12/15 01:45:48;;;;;;;110.73;47.90;;;-2.00;99.90;;;;;;10321913;28;20049;-84
2022/12/15 01:51:01;;;;;;;111.22;49.38;;;-2.10;99.90;;;;;;10314487;28;20129;-84
2022/12/15 01:56:04;;;;;;;105.67;46.70;;;-2.10;99.90;;;;;;10317333;28;20034;-84
2022/12/15 02:01:05;;;;;;;119.83;51.93;;;-2.10;99.90;;;;;;10313272;28;20045;-86
2022/12/15 02:06:07;;;;;;;107.77;50.03;;;-2.10;99.90;;;;;;10317229;28;20038;-83
2022/12/15 02:11:33;;;;;;;114.57;48.00;;;-2.00;99.90;;;;;;10321028;28;20110;-84
2022/12/15 02:16:49;;;;;;;113.20;49.60;;;-2.00;99.90;;;;;;10312563;28;20835;-83
2022/12/15 02:22:03;;;;;;;;;;;-2.00;99.90;;;;;;10310761;28;20285;-84
2022/12/15 02:27:07;;;;;;;124.13;54.27;;;-2.00;99.90;;;;;;10321081;28;20020;-83
2022/12/15 02:32:14;;;;;;;111.27;52.60;;;-2.00;99.90;;;;;;10317875;28;20129;-83
2022/12/15 02:37:32;;;;;;;129.43;53.83;;;-2.00;99.90;;;;;;10302906;28;20034;-83
2022/12/15 02:42:37;;;;;;;129.20;54.40;;;-1.90;99.90;;;;;;10320344;28;20093;-83
2022/12/15 02:47:46;;;;;;;121.93;53.25;;;-1.90;99.90;;;;;;10350832;28;20030;-83
2022/12/15 02:53:18;;;;;;;119.80;54.07;;;-2.00;99.90;;;;;;10319592;28;20038;-83
2022/12/15 02:58:37;;;;;;;138.80;60.20;;;-2.00;99.90;;;;;;10320430;28;20390;-82
2022/12/15 03:03:40;;;;;;;136.73;60.60;;;-2.00;99.90;;;;;;10318430;28;20473;-83
2022/12/15 03:08:40;;;;;;;131.17;60.03;;;-2.00;99.90;;;;;;10312279;28;20018;-83
2022/12/15 03:13:41;;;;;;;146.20;64.73;;;-1.90;99.90;;;;;;10319614;28;20042;-85
2022/12/15 03:18:41;;;;;;;146.07;64.30;;;-1.90;99.90;;;;;;10350009;28;20042;-82
2022/12/15 03:23:42;;;;;;;159.37;72.53;;;-1.90;99.90;;;;;;10318187;28;20683;-83
2022/12/15 03:28:42;;;;;;;138.43;63.53;;;-1.90;99.90;;;;;;10319425;28;20038;-83
2022/12/15 03:33:43;;;;;;;141.07;62.83;;;-1.90;99.90;;;;;;10350499;28;20364;-82
2022/12/15 03:38:43;;;;;;;142.83;59.80;;;-1.90;99.90;;;;;;10316897;28;20053;-83
2022/12/15 03:43:45;;;;;;;140.23;63.63;;;-1.90;99.90;;;;;;10350299;28;20084;-83
2022/12/15 03:48:45;;;;;;;136.27;60.80;;;-1.90;99.90;;;;;;10317559;28;20030;-84
2022/12/15 03:53:48;;;;;;;137.60;62.27;;;-1.90;99.90;;;;;;10316839;28;20104;-83
2022/12/15 03:58:48;;;;;;;142.53;60.33;;;-1.90;99.90;;;;;;10318025;28;20035;-83
2022/12/15 04:03:49;;;;;;;141.33;64.67;;;-1.90;99.90;;;;;;10320785;28;20490;-86
2022/12/15 04:08:49;;;;;;;138.27;62.63;;;-1.90;99.90;;;;;;10316446;28;20114;-88
2022/12/15 04:13:50;;;;;;;134.37;59.53;;;-1.90;99.90;;;;;;10284996;28;20141;-85
2022/12/15 04:20:07;;;;;;;126.27;56.93;;;-2.00;99.90;;;;;;10314610;28;20752;-83
2022/12/15 05:33:32;;;;;;;150.20;66.10;;;-2.50;99.90;;;;;;10305486;28;20058;-81
2022/12/15 05:38:32;;;;;;;156.33;67.57;;;-2.60;99.90;;;;;;10317914;28;20050;-81
2022/12/15 05:43:33;;;;;;;145.20;66.13;;;-2.60;99.90;;;;;;10320829;28;20034;-81
2022/12/15 05:48:33;;;;;;;147.60;67.77;;;-2.60;99.90;;;;;;10321191;28;20042;-82
2022/12/15 05:53:36;;;;;;;188.30;84.17;;;-2.60;99.90;;;;;;10322520;28;20551;-82
2022/12/15 05:58:38;;;;;;;149.47;65.80;;;-2.70;99.90;;;;;;10321498;28;20030;-81
2022/12/15 06:03:39;;;;;;;152.30;70.30;;;-2.70;99.90;;;;;;10322161;28;20034;-81
2022/12/15 06:08:41;;;;;;;164.53;73.33;;;-2.70;99.90;;;;;;10321929;28;20022;-81
2022/12/15 06:13:42;;;;;;;177.50;74.50;;;-2.70;99.90;;;;;;10320842;28;20080;-81
2022/12/15 06:18:49;;;;;;;159.57;65.60;;;-2.80;99.90;;;;;;10321571;28;20046;-81
2022/12/15 06:23:51;;;;;;;163.93;70.50;;;-2.80;99.90;;;;;;10320376;28;20406;-82
2022/12/15 06:28:53;;;;;;;268.80;108.50;;;-2.80;99.90;;;;;;10321080;28;20650;-82
2022/12/15 06:33:54;;;;;;;160.23;72.53;;;-2.80;99.90;;;;;;10351834;28;20491;-81
2022/12/15 06:38:58;;;;;;;214.40;84.37;;;-2.80;99.90;;;;;;10319971;28;20462;-82
2022/12/15 06:43:59;;;;;;;178.93;75.27;;;-2.70;99.90;;;;;;10320630;28;20034;-81
2022/12/15 06:49:00;;;;;;;199.50;77.93;;;-2.70;99.90;;;;;;10320463;28;20054;-82
2022/12/15 06:54:00;;;;;;;167.10;70.23;;;-2.80;99.90;;;;;;10319769;28;20109;-82
2022/12/15 06:59:03;;;;;;;227.30;93.53;;;-2.70;99.90;;;;;;10319769;28;20069;-81
2022/12/15 07:04:04;;;;;;;189.70;72.13;;;-2.70;99.90;;;;;;10320369;28;20034;-82
2022/12/15 07:09:07;;;;;;;180.70;73.57;;;-2.70;99.90;;;;;;10319670;28;20478;-82
2022/12/15 07:14:08;;;;;;;142.00;60.93;;;-2.60;99.90;;;;;;10319111;28;20125;-82
2022/12/15 07:19:11;;;;;;;160.60;67.20;;;-2.50;99.90;;;;;;10320129;28;20062;-81
2022/12/15 07:24:12;;;;;;;131.73;56.87;;;-2.50;99.90;;;;;;10318972;28;20034;-81
2022/12/15 07:29:12;;;;;;;152.03;68.27;;;-2.40;99.90;;;;;;10319946;28;20041;-82
2022/12/15 07:34:13;;;;;;;167.33;70.67;;;-2.30;99.90;;;;;;10319544;28;20482;-82
2022/12/15 07:39:14;;;;;;;153.80;63.17;;;-2.20;99.90;;;;;;10325412;28;20046;-82
2022/12/15 07:44:15;;;;;;;130.20;56.27;;;-2.10;99.90;;;;;;10327879;28;20109;-81
2022/12/15 07:49:17;;;;;;;139.37;57.00;;;-2.10;99.90;;;;;;10325457;28;20489;-82
2022/12/15 07:54:17;;;;;;;121.27;51.00;;;-1.90;99.90;;;;;;10327212;28;20714;-82
2022/12/15 07:59:18;;;;;;;126.03;54.33;;;-1.80;99.90;;;;;;10326899;28;20121;-82
2022/12/15 08:04:19;;;;;;;123.80;54.20;;;-1.80;99.90;;;;;;10326967;28;20536;-82
2022/12/15 08:09:19;;;;;;;133.10;62.60;;;-1.70;99.90;;;;;;10326094;28;20034;-82
2022/12/15 08:14:20;;;;;;;138.77;62.60;;;-1.60;99.90;;;;;;10326079;28;20561;-82
2022/12/15 08:19:20;;;;;;;142.73;63.33;;;-1.60;99.90;;;;;;10326009;28;20089;-82
2022/12/15 08:24:21;;;;;;;110.00;50.30;;;-1.60;99.90;;;;;;10326083;28;20034;-82
2022/12/15 08:29:22;;;;;;;104.03;48.17;;;-1.50;99.90;;;;;;10325798;28;20081;-82
2022/12/15 08:34:22;;;;;;;107.63;47.33;;;-1.40;99.90;;;;;;10324082;28;20509;-81
2022/12/15 08:39:23;;;;;;;107.03;47.67;;;-1.30;99.90;;;;;;10325496;28;20442;-81
2022/12/15 08:44:23;;;;;;;114.40;51.07;;;-1.30;99.90;;;;;;10325334;28;20394;-81
2022/12/15 08:49:24;;;;;;;118.63;53.93;;;-1.20;99.90;;;;;;10324532;28;20030;-82
2022/12/15 08:54:25;;;;;;;127.30;56.30;;;-1.10;99.90;;;;;;10325141;28;20471;-82
2022/12/15 08:59:26;;;;;;;138.23;60.27;;;-1.00;99.90;;;;;;10324641;28;20039;-82
2022/12/15 09:04:26;;;;;;;98.93;44.07;;;-0.90;99.90;;;;;;10324769;28;20034;-82
2022/12/15 09:09:27;;;;;;;90.07;41.13;;;-0.80;99.90;;;;;;10322586;28;20027;-82
2022/12/15 09:14:28;;;;;;;152.17;67.03;;;-0.70;99.90;;;;;;10322273;28;20375;-83
2022/12/15 09:19:29;;;;;;;103.63;46.10;;;-0.60;99.90;;;;;;10355392;28;20141;-83
2022/12/15 09:24:29;;;;;;;93.87;42.37;;;-0.60;99.90;;;;;;10323705;28;20022;-83
2022/12/15 09:29:30;;;;;;;86.50;37.57;;;-0.60;99.90;;;;;;10323472;28;20026;-82
2022/12/15 09:34:31;;;;;;;83.67;37.47;;;-0.60;99.90;;;;;;10321723;28;20053;-81
2022/12/15 09:39:31;;;;;;;86.40;39.17;;;-0.70;99.90;;;;;;10320888;28;20050;-82
2022/12/15 09:44:32;;;;;;;87.53;39.80;;;-0.60;99.90;;;;;;10322722;28;20034;-82
2022/12/15 09:49:54;;;;;;;87.17;37.97;;;-0.60;99.90;;;;;;10322407;28;20113;-81
2022/12/15 09:54:57;;;;;;;80.03;36.47;;;-0.60;99.90;;;;;;10322286;28;20058;-82
2022/12/15 10:00:10;;;;;;;135.17;52.67;;;-0.50;99.90;;;;;;10319653;28;20129;-82
2022/12/15 10:05:54;;;;;;;76.03;33.03;;;-0.50;99.90;;;;;;10319724;28;20489;-82
2022/12/15 10:10:59;;;;;;;78.27;37.00;;;-0.50;99.90;;;;;;10321219;28;20034;-82
2022/12/15 10:16:04;;;;;;;74.03;34.60;;;-0.50;99.90;;;;;;10321136;28;20112;-83
2022/12/15 10:21:12;;;;;;;82.00;35.90;;;-0.50;99.90;;;;;;10352146;28;20513;-83
2022/12/15 10:26:19;;;;;;;88.30;37.57;;;-0.40;99.90;;;;;;10321391;28;20565;-81
2022/12/15 10:31:33;;;;;;;103.97;44.17;;;-0.40;99.90;;;;;;10353013;28;20036;-81
2022/12/15 10:36:34;;;;;;;82.83;35.10;;;-0.40;99.90;;;;;;10321493;28;20073;-82
2022/12/15 10:41:34;;;;;;;106.33;44.40;;;-0.40;99.90;;;;;;10320542;28;20494;-82
2022/12/15 10:46:35;;;;;;;84.93;36.10;;;-0.30;99.90;;;;;;10320411;28;20049;-82
2022/12/15 10:51:42;;;;;;;79.73;36.47;;;-0.20;99.90;;;;;;10320535;28;20038;-81
2022/12/15 10:56:54;;;;;;;72.10;32.97;;;0.00;99.90;;;;;;10320977;28;20394;-83
2022/12/15 11:01:55;;;;;;;75.30;34.00;;;0.00;99.90;;;;;;10318695;28;20046;-81
2022/12/15 11:06:57;;;;;;;74.90;30.77;;;0.00;99.90;;;;;;10318143;28;20092;-81
2022/12/15 11:17:22;;;;;;;66.13;30.33;;;-0.10;99.90;;;;;;10320438;28;20142;-83
2022/12/15 11:22:37;;;;;;;65.90;29.80;;;0.00;99.90;;;;;;10320071;28;20096;-81
2022/12/15 11:27:42;;;;;;;64.20;28.40;;;0.00;99.90;;;;;;10319732;28;20113;-81
2022/12/15 11:32:50;;;;;;;62.70;28.43;;;0.00;99.90;;;;;;10319288;28;20116;-82
2022/12/15 11:38:08;;;;;;;61.23;28.53;;;0.10;99.90;;;;;;10319902;28;20390;-81
2022/12/15 11:43:39;;;;;;;63.83;29.07;;;0.20;99.90;;;;;;10320177;28;20045;-82
2022/12/15 11:48:43;;;;;;;59.00;27.57;;;0.10;99.90;;;;;;10319493;28;20557;-81
2022/12/15 11:53:50;;;;;;;63.27;27.37;;;0.20;99.90;;;;;;10319342;28;20041;-83
2022/12/15 11:58:51;;;;;;;61.27;27.00;;;0.30;99.90;;;;;;10319475;28;20428;-81
2022/12/15 12:04:13;;;;;;;59.03;25.47;;;0.30;99.90;;;;;;10317693;28;20034;-81
2022/12/15 12:09:38;;;;;;;58.67;27.10;;;0.30;99.90;;;;;;10318967;28;20094;-80
2022/12/15 12:15:05;;;;;;;62.27;27.47;;;0.30;99.90;;;;;;10317759;28;20038;-82
2022/12/15 12:20:26;;;;;;;98.00;38.83;;;0.20;99.90;;;;;;10318822;28;20074;-81
2022/12/15 12:25:28;;;;;;;106.37;49.30;;;0.20;99.90;;;;;;10301917;28;20495;-81
2022/12/15 12:30:41;;;;;;;81.53;37.27;;;0.20;99.90;;;;;;10321252;28;20514;-81
2022/12/15 12:35:49;;;;;;;86.77;39.33;;;0.20;99.90;;;;;;10325497;28;20066;-81
2022/12/15 12:40:58;;;;;;;67.63;30.00;;;0.20;99.90;;;;;;10324642;28;20169;-82
2022/12/15 12:46:20;;;;;;;59.83;27.97;;;0.10;99.90;;;;;;10323878;28;20418;-81
2022/12/15 12:51:31;;;;;;;59.50;26.93;;;0.10;99.90;;;;;;10325435;28;20036;-81
2022/12/15 12:56:42;;;;;;;70.90;30.40;;;0.10;99.90;;;;;;10323566;28;20766;-81
2022/12/15 13:01:42;;;;;;;84.47;35.60;;;0.00;99.90;;;;;;10324344;28;20041;-81
2022/12/15 13:06:43;;;;;;;81.57;36.00;;;0.00;99.90;;;;;;10324878;28;20029;-81
2022/12/15 13:11:52;;;;;;;76.40;32.57;;;-0.20;99.90;;;;;;10322754;28;20026;-83
2022/12/15 13:17:03;;;;;;;82.53;36.27;;;-0.10;99.90;;;;;;10322021;28;20556;-80
2022/12/15 13:22:27;;;;;;;81.00;37.27;;;-0.20;99.90;;;;;;10312854;28;20549;-81
2022/12/15 13:27:35;;;;;;;83.07;35.70;;;-0.30;99.90;;;;;;10301341;28;20125;-78
2022/12/15 13:32:40;;;;;;;85.80;37.20;;;-0.50;99.90;;;;;;10315077;28;20299;-83
2022/12/15 13:37:41;;;;;;;93.80;39.03;;;-0.60;99.90;;;;;;10337737;28;20042;-81
2022/12/15 13:42:43;;;;;;;83.77;37.63;;;-0.60;99.90;;;;;;10306697;28;20034;-80
2022/12/15 13:47:52;;;;;;;78.57;34.00;;;-0.60;99.90;;;;;;10320905;28;20030;-84
2022/12/15 13:52:55;;;;;;;80.90;34.30;;;-0.70;99.90;;;;;;10319645;28;20081;-81
2022/12/15 13:58:02;;;;;;;70.97;29.20;;;-0.80;99.90;;;;;;10316303;28;20049;-81
2022/12/15 14:03:05;;;;;;;73.27;30.00;;;-0.80;99.90;;;;;;10305965;28;20026;-81
2022/12/15 14:08:14;;;;;;;73.27;31.40;;;-1.00;99.90;;;;;;10321623;28;20033;-80
2022/12/15 14:13:21;;;;;;;92.97;42.73;;;-1.10;99.90;;;;;;10318497;28;20034;-80
2022/12/15 14:18:29;;;;;;;82.87;35.83;;;-1.10;99.90;;;;;;10311731;28;20077;-81
2022/12/15 14:23:41;;;;;;;73.17;31.80;;;-1.10;99.90;;;;;;10320944;28;20102;-81
2022/12/15 14:28:44;;;;;;;71.77;31.50;;;-1.20;99.90;;;;;;10307503;28;20030;-81
2022/12/15 14:33:49;;;;;;;79.67;32.90;;;-1.20;99.90;;;;;;10315157;28;20160;-81
2022/12/15 14:39:00;;;;;;;73.27;32.17;;;-1.20;99.90;;;;;;10319698;28;20176;-80
2022/12/15 14:44:06;;;;;;;89.50;36.50;;;-1.20;99.90;;;;;;10345075;28;20112;-80
2022/12/15 14:49:07;;;;;;;;;;;-1.20;99.90;;;;;;10314658;28;20030;-80
2022/12/15 14:54:29;;;;;;;128.73;57.80;;;-1.30;99.90;;;;;;10320368;28;20683;-81
2022/12/15 14:59:33;;;;;;;115.33;49.87;;;-1.30;99.90;;;;;;10320426;28;20522;-81
2022/12/15 15:04:33;;;;;;;103.80;45.10;;;-1.30;99.90;;;;;;10320224;28;20038;-80
2022/12/15 15:09:39;;;;;;;176.33;73.87;;;-1.30;99.90;;;;;;10306340;28;20708;-81
2022/12/15 15:14:47;;;;;;;224.05;98.30;;;-1.30;99.90;;;;;;10351160;28;20026;-81
2022/12/15 15:19:59;;;;;;;225.83;101.33;;;-1.30;99.90;;;;;;10319647;28;20038;-81
2022/12/15 15:24:59;;;;;;;169.70;78.67;;;-1.30;99.90;;;;;;10319551;28;20045;-81
2022/12/15 15:30:22;;;;;;;157.37;69.47;;;-1.40;99.90;;;;;;10350320;28;20041;-81
2022/12/15 15:35:29;;;;;;;140.63;59.73;;;-1.40;99.90;;;;;;10318490;28;20461;-83
2022/12/15 15:40:29;;;;;;;168.37;71.67;;;-1.50;99.90;;;;;;10317821;28;20046;-81
2022/12/15 15:45:30;;;;;;;193.53;78.73;;;-1.50;99.90;;;;;;10319224;28;20035;-83
2022/12/15 15:50:31;;;;;;;217.57;86.27;;;-1.50;99.90;;;;;;10319264;28;20030;-81
2022/12/15 15:55:32;;;;;;;187.07;79.73;;;-1.60;99.90;;;;;;10319194;28;20579;-80
2022/12/15 16:00:33;;;;;;;152.17;61.17;;;-1.60;99.90;;;;;;10327037;28;20169;-80
2022/12/15 16:05:34;;;;;;;118.70;50.27;;;-1.70;99.90;;;;;;10326818;28;20030;-81
2022/12/15 16:10:35;;;;;;;146.67;59.80;;;-1.80;99.90;;;;;;10327386;28;20031;-81
2022/12/15 16:15:36;;;;;;;124.83;49.07;;;-1.90;99.90;;;;;;10326046;28;20502;-80
2022/12/15 16:20:38;;;;;;;116.13;52.57;;;-1.90;99.90;;;;;;10326817;28;20038;-80
2022/12/15 16:25:45;;;;;;;115.00;49.23;;;-2.00;99.90;;;;;;10326201;28;20089;-80
2022/12/15 16:30:47;;;;;;;104.93;47.97;;;-2.00;99.90;;;;;;10327032;28;20030;-81
2022/12/15 16:35:48;;;;;;;124.63;54.20;;;-2.00;99.90;;;;;;10326132;28;20089;-83
2022/12/15 16:40:50;;;;;;;130.87;56.23;;;-1.90;99.90;;;;;;10325939;28;20038;-80
2022/12/15 16:45:53;;;;;;;134.03;58.83;;;-2.00;99.90;;;;;;10325936;28;20382;-80
2022/12/15 16:50:57;;;;;;;119.83;49.33;;;-2.00;99.90;;;;;;10323759;28;20761;-81
2022/12/15 16:56:00;;;;;;;143.77;60.13;;;-1.90;99.90;;;;;;10324587;28;20073;-81
2022/12/15 17:01:01;;;;;;;169.23;69.37;;;-1.90;99.90;;;;;;10322270;28;20047;-82
2022/12/15 17:06:06;;;;;;;193.20;82.93;;;-1.90;99.90;;;;;;10323278;28;20059;-80
2022/12/15 17:11:17;;;;;;;138.43;60.88;;;-1.90;99.90;;;;;;10321168;28;20505;-80
2022/12/15 17:16:19;;;;;;;123.20;54.37;;;-1.80;99.90;;;;;;10322865;28;20578;-81
2022/12/15 17:21:29;;;;;;;114.97;50.57;;;-1.80;99.90;;;;;;10323173;28;20038;-82
2022/12/15 17:26:32;;;;;;;132.27;54.83;;;-1.70;99.90;;;;;;10311417;28;20887;-83
2022/12/15 17:31:32;;;;;;;122.50;53.70;;;-1.70;99.90;;;;;;10322081;28;20100;-84
2022/12/15 17:36:33;;;;;;;122.87;49.53;;;-1.70;99.90;;;;;;10317897;28;20133;-82
2022/12/15 17:41:33;;;;;;;122.13;49.97;;;-1.70;99.90;;;;;;10345324;28;20100;-83
2022/12/15 17:46:34;;;;;;;124.80;52.07;;;-1.80;99.90;;;;;;10320722;28;20036;-83
2022/12/15 17:51:34;;;;;;;128.10;55.63;;;-1.80;99.90;;;;;;10319772;28;20121;-82
2022/12/15 17:56:35;;;;;;;117.27;52.93;;;-1.80;99.90;;;;;;10321125;28;20044;-82
2022/12/15 18:01:36;;;;;;;121.70;51.80;;;-1.80;99.90;;;;;;10316615;28;20562;-83
2022/12/15 18:06:41;;;;;;;115.93;48.37;;;-1.80;99.90;;;;;;10318302;28;20033;-83
2022/12/15 18:11:44;;;;;;;116.65;50.42;;;-1.80;99.90;;;;;;10319770;28;20034;-80
2022/12/15 18:16:45;;;;;;;116.87;50.07;;;-1.80;99.90;;;;;;10319675;28;20125;-82
2022/12/15 18:21:45;;;;;;;110.80;45.33;;;-1.80;99.90;;;;;;10352353;28;20667;-81
2022/12/15 18:26:46;;;;;;;109.17;49.60;;;-1.80;99.90;;;;;;10312147;28;20031;-81
2022/12/15 18:31:48;;;;;;;123.80;53.07;;;-1.80;99.90;;;;;;10344499;28;20822;-82
2022/12/15 18:36:50;;;;;;;113.83;50.60;;;-1.80;99.90;;;;;;10319482;28;20058;-82
2022/12/15 18:41:53;;;;;;;113.63;49.47;;;-1.80;99.90;;;;;;10316762;28;20042;-84
2022/12/15 18:46:53;;;;;;;126.53;55.17;;;-1.80;99.90;;;;;;10314834;28;20070;-84
2022/12/15 18:51:54;;;;;;;131.67;59.20;;;-1.80;99.90;;;;;;10319685;28;20930;-85
2022/12/15 18:56:54;;;;;;;122.10;55.33;;;-1.80;99.90;;;;;;10315233;28;20031;-82
2022/12/15 19:01:55;;;;;;;124.60;54.13;;;-1.80;99.90;;;;;;10317433;28;20481;-82
2022/12/15 19:06:56;;;;;;;129.70;55.87;;;-1.80;99.90;;;;;;10318036;28;20137;-82
2022/12/15 19:12:16;;;;;;;121.67;55.40;;;-1.80;99.90;;;;;;10318453;28;20042;-83
2022/12/15 19:22:39;;;;;;;127.00;57.23;;;-1.80;99.90;;;;;;10307371;28;20046;-83
2022/12/15 19:27:39;;;;;;;162.57;72.03;;;-1.90;99.90;;;;;;10318339;28;20470;-81
2022/12/15 19:32:40;;;;;;;132.70;58.23;;;-1.90;99.90;;;;;;10321874;28;20690;-80
2022/12/15 19:37:43;;;;;;;191.37;90.90;;;-1.90;99.90;;;;;;10325407;28;20513;-80
2022/12/15 19:42:45;;;;;;;139.07;61.73;;;-1.90;99.90;;;;;;10325293;28;20031;-82
2022/12/15 19:47:46;;;;;;;166.47;78.93;;;-1.80;99.90;;;;;;10325884;28;20022;-83
2022/12/15 19:52:59;;;;;;;153.63;72.40;;;-1.90;99.90;;;;;;10326020;28;20395;-81
2022/12/15 19:58:16;;;;;;;160.97;72.07;;;-1.90;99.90;;;;;;10324759;28;20042;-83
2022/12/15 20:03:17;;;;;;;155.83;72.07;;;-1.80;99.90;;;;;;10324505;28;20030;-82
2022/12/15 20:08:21;;;;;;;151.03;65.43;;;-1.80;99.90;;;;;;10356753;28;20030;-82
2022/12/15 20:13:22;;;;;;;158.97;70.63;;;-1.80;99.90;;;;;;10320179;28;20102;-82
2022/12/15 20:18:23;;;;;;;178.60;77.27;;;-1.80;99.90;;;;;;10317843;28;20137;-81
2022/12/15 20:23:25;;;;;;;172.73;75.67;;;-1.90;99.90;;;;;;10324594;28;20041;-82
2022/12/15 20:28:27;;;;;;;169.53;73.67;;;-1.90;99.90;;;;;;10324488;28;20542;-81
2022/12/15 20:33:28;;;;;;;170.33;73.87;;;-2.00;99.90;;;;;;10321511;28;20058;-83
2022/12/15 20:38:31;;;;;;;222.30;96.53;;;-2.00;99.90;;;;;;10323701;28;20049;-82
2022/12/15 20:43:33;;;;;;;174.33;77.67;;;-2.00;99.90;;;;;;10315316;28;20031;-81
2022/12/15 20:48:35;;;;;;;167.07;75.73;;;-2.00;99.90;;;;;;10325104;28;20033;-81
2022/12/15 20:53:37;;;;;;;260.67;120.07;;;-2.00;99.90;;;;;;10320398;28;20040;-81
2022/12/15 20:58:38;;;;;;;187.67;83.13;;;-2.00;99.90;;;;;;10323310;28;20022;-82
2022/12/15 21:03:39;;;;;;;165.90;73.13;;;-1.90;99.90;;;;;;10315675;28;20042;-82
2022/12/15 21:08:40;;;;;;;174.50;75.03;;;-1.90;99.90;;;;;;10320912;28;20422;-81
2022/12/15 21:13:41;;;;;;;172.13;74.83;;;-1.80;99.90;;;;;;10318403;28;20027;-81
2022/12/15 21:18:42;;;;;;;150.43;65.43;;;-1.80;99.90;;;;;;10314139;28;20042;-81
2022/12/15 21:23:43;;;;;;;165.40;73.70;;;-1.80;99.90;;;;;;10318674;28;20045;-81
2022/12/15 21:28:43;;;;;;;139.27;60.87;;;-1.80;99.90;;;;;;10316559;28;20092;-81
2022/12/15 21:33:45;;;;;;;131.33;56.70;;;-1.80;99.90;;;;;;10322951;28;20125;-82
2022/12/15 21:38:49;;;;;;;145.80;66.87;;;-1.80;99.90;;;;;;10308354;28;20470;-82
2022/12/15 21:43:50;;;;;;;147.27;62.17;;;-1.80;99.90;;;;;;10322485;28;20038;-81
2022/12/15 21:54:17;;;;;;;135.60;57.30;;;-1.80;99.90;;;;;;10318894;28;20046;-82
2022/12/15 21:59:19;;;;;;;146.73;55.63;;;-1.80;99.90;;;;;;10320582;28;20038;-82
2022/12/15 22:04:28;;;;;;;127.70;54.70;;;-1.80;99.90;;;;;;10351124;28;20034;-81
2022/12/15 22:09:28;;;;;;;124.30;51.60;;;-1.80;99.90;;;;;;10311510;28;20710;-80
2022/12/15 22:14:32;;;;;;;114.60;51.10;;;-1.80;99.90;;;;;;10351829;28;20045;-82
2022/12/15 22:19:32;;;;;;;117.47;50.03;;;-1.80;99.90;;;;;;10319209;28;20376;-81
2022/12/15 22:24:33;;;;;;;123.13;51.40;;;-1.80;99.90;;;;;;10346358;28;20034;-81
2022/12/15 22:29:33;;;;;;;119.83;48.57;;;-1.80;99.90;;;;;;10321332;28;20104;-81
2022/12/15 22:34:34;;;;;;;115.00;49.23;;;-1.80;99.90;;;;;;10351192;28;20054;-81
2022/12/15 22:39:35;;;;;;;133.57;56.17;;;-1.80;99.90;;;;;;10318127;28;20050;-81
2022/12/15 22:44:37;;;;;;;112.67;47.20;;;-1.80;99.90;;;;;;10319507;28;20499;-82
2022/12/15 22:49:39;;;;;;;109.13;46.80;;;-1.80;99.90;;;;;;10319468;28;20039;-82
2022/12/15 22:54:39;;;;;;;113.00;47.50;;;-1.80;99.90;;;;;;10350143;28;20033;-81
2022/12/15 22:59:45;;;;;;;104.10;44.77;;;-1.70;99.90;;;;;;10319469;28;20046;-82
2022/12/15 23:04:46;;;;;;;93.57;41.63;;;-1.80;99.90;;;;;;10317152;28;20114;-82
2022/12/15 23:09:46;;;;;;;101.77;44.30;;;-1.80;99.90;;;;;;10311351;28;20034;-81
2022/12/15 23:20:07;;;;;;;89.93;39.10;;;-1.90;99.90;;;;;;10319585;28;20197;-82
2022/12/15 23:25:08;;;;;;;82.43;34.07;;;-1.90;99.90;;;;;;10317042;28;20034;-81
2022/12/15 23:30:11;;;;;;;81.23;33.10;;;-1.90;99.90;;;;;;10319692;28;20589;-81
2022/12/15 23:35:12;;;;;;;85.73;36.17;;;-2.00;99.90;;;;;;10319375;28;20112;-81
2022/12/15 23:40:18;;;;;;;90.87;36.43;;;-2.10;99.90;;;;;;10318847;28;20180;-81
2022/12/15 23:45:19;;;;;;;85.07;36.17;;;-2.10;99.90;;;;;;10311136;28;20058;-81
2022/12/15 23:50:19;;;;;;;87.07;32.40;;;-2.10;99.90;;;;;;10316375;28;20141;-81
2022/12/15 23:55:20;;;;;;;91.47;38.30;;;-2.10;99.90;;;;;;10311594;28;20501;-81
